logo
App data

Space Robot Samurai Zombie Slayer

We are not alone in the universe, its filled with Zombies! To combat them mankind invented their most efficient weapon yet: the Space Robot Samurai Zombie Slayer. ONLY YOU can pilot the powerful Space Robot Samurai Zombie Slayer to fight the Space Zombie horde!
Store | Hub | SteamDB | Site
Developer: Brandon Brizzi Publisher: Brandon Brizzi
Genre: Action, Indie
Languages: English
Tags: Action (24), Indie (23), Zombies (6)
Category: Single-player, Steam Achievements, Full controller support, Steam Leaderboards
Release date: May 21, 2015
Price: $1.99
Owners: 0 .. 20,000
Followers: 105
Playtime total: 00:20 (average) 00:20 (median)

Steam Spy is still in beta, so expect major bugs.

Owners data:

Access restricted.

This feature is only available to users with special access rights. Sorry.

If you want to proceed, you need to register or log in first and then back Steam Spy on Patreon. Look for Indie or Pro pledge.

Don't forget to use the same email as on Steam Spy!

Audience in 2 weeks:

Access restricted.

This feature is only available to users with special access rights. Sorry.

If you want to proceed, you need to register or log in first and then back Steam Spy on Patreon. Look for Indie or Pro pledge.

Don't forget to use the same email as on Steam Spy!

Peak daily concurrent players:

CCU data courtesy of SteamDB. Used with permission.

Hourly concurrent players:

YouTube:

The views data is based on top 50 videos uploaded last week. Actual number of views might be more than the number shown.

The displayed number of videos uploaded yesterday is limited to 50, so if there were more videos uploaded, the number will still show 50.

If the game has commonly used word as its name (like "FEAR" or "Volume") its number of Youtube views might be wrong.

Games similar to this one:

# Game Release date
Price
Score rank
(Userscore / Metascore)
Owners
Players
Playtime (Median)
1 Tinertia Sep 3, 2015 $11.99100% (100%)0 .. 20,00020%00:06 (00:02)
2 MadSpace: To Hell and Beyond May 1, 2015 $5.99N/A (N/A)0 .. 20,0000%00:00 (00:00)
3 Seven Kingdoms: Ancient Adversaries Jun 8, 1998 $5.9997% (97%)0 .. 20,0000%00:00 (00:00)
4 Lazerbait Oct 14, 2016 Free97% (97%)50,000 .. 100,0000%00:00 (00:00)
5 Hide & Spook: The Haunted Alchemist Oct 28, 2016 FreeN/A (N/A)0 .. 20,0000%00:00 (00:00)
6 Bot Vice Jul 11, 2016 $4.9992% (95%)50,000 .. 100,0001.11%00:06 (00:02)
7 Bio Menace May 5, 2014 N/AN/A (N/A)0 .. 20,0000%00:00 (00:00)
8 Fragile Allegiance Jun 30, 2015 $4.99N/A (N/A)0 .. 20,0000%00:00 (00:00)
9 Wuppo Sep 29, 2016 $14.9992% (95%/78%)200,000 .. 500,0001.48%02:00 (02:01)
10 Star Trek: Judgment Rites May 8, 2015 $9.99N/A (N/A)0 .. 20,0000%00:00 (00:00)
11 ESCHATOS Sep 18, 2015 $14.9990% (94%)0 .. 20,0000%00:00 (00:00)
12 Gold Rush! Classic Jul 25, 2014 $2.99N/A (N/A)200,000 .. 500,0000.4%02:34 (01:54)
13 Anarcute Jul 12, 2016 $14.9987% (93%/79%)0 .. 20,0002.86%01:17 (00:25)
14 Garden Rescue Feb 2, 2015 $3.99N/A (N/A)100,000 .. 200,0000.25%01:22 (00:27)
15 UFHO2 Jun 2, 2015 FreeN/A (N/A)20,000 .. 50,0001.18%00:01 (00:00)
16 Run or Die Dec 11, 2014 $4.9987% (93%)0 .. 20,0000%00:00 (00:00)
17 Normality Jun 30, 1996 $2.9987% (93%)200,000 .. 500,0000.25%01:39 (01:06)
18 NotCoD May 19, 2016 $4.9987% (93%)0 .. 20,0000%00:00 (00:00)
19 Shmups Skill Test シューティング技能検定 Jun 9, 2016 $4.99N/A (N/A)0 .. 20,0000%00:00 (00:00)
20 Tornuffalo Dec 12, 2016 $0.99N/A (N/A)0 .. 20,0000%00:00 (00:00)
21 Gun Bombers Sep 21, 2016 $7.99N/A (N/A)0 .. 20,0000%00:00 (00:00)
22 Super Flippin' Phones Feb 18, 2016 $2.99N/A (N/A)0 .. 20,0000%00:00 (00:00)
23 Super Mutant Alien Assault Aug 20, 2015 $9.9983% (92%)0 .. 20,0000%00:00 (00:00)
24 Great Big War Game Aug 28, 2012 $6.99N/A (N/A)0 .. 20,0000%00:00 (00:00)
25 Kohan II: Kings of War Aug 24, 2011 $9.9980% (91%/81%)20,000 .. 50,0000%00:00 (00:00)
26 Space Ace Aug 27, 2013 $9.9980% (91%)0 .. 20,0000%00:00 (00:00)
27 Marc Eckō's Getting Up: Contents Under Pressure Dec 13, 2013 $14.9980% (91%/69%)50,000 .. 100,0000%00:00 (00:00)
28 Fractured Soul Feb 5, 2015 $9.99N/A (N/A)0 .. 20,0000%00:00 (00:00)
29 Apocalypse: Party's Over May 30, 2016 N/A80% (91%)0 .. 20,0000%00:00 (00:00)
30 Explosionade Sep 23, 2015 $3.99N/A (N/A)0 .. 20,0000%00:00 (00:00)
31 Bezier Mar 3, 2016 $9.9977% (90%)0 .. 20,0000%00:00 (00:00)
32 Sam & Max 104: Abe Lincoln Must Die! Jun 15, 2007 N/A77% (90%)50,000 .. 100,0000.88%30:55 (10:18)
33 JUDGEMENT SILVERSWORD - Resurrection - Sep 18, 2015 $4.99N/A (N/A)0 .. 20,0000%00:00 (00:00)
34 Chicken Invaders 3 Jun 8, 2015 $4.9977% (90%)20,000 .. 50,0000%00:00 (00:00)
35 Transcendence Jul 24, 2015 $8.9977% (90%)0 .. 20,00033.33%05:09 (01:43)
36 Westward IV: All Aboard Feb 16, 2010 $6.99N/A (N/A)0 .. 20,0000%00:00 (00:00)
37 DELTAZEAL Oct 16, 2015 $11.99N/A (N/A)0 .. 20,0000%00:00 (00:00)
38 Death's Hangover Jan 20, 2017 $4.9973% (89%)50,000 .. 100,0000%00:00 (00:00)
39 Armed and Dangerous Jul 8, 2009 $5.9971% (88%/78%)20,000 .. 50,0000%00:00 (00:00)
40 The Sum of All Fears Oct 10, 2008 $9.99N/A (N/A/72%)0 .. 20,0000%00:00 (00:00)
41 Inbound Jul 5, 2016 $2.99N/A (N/A)0 .. 20,0000%00:00 (00:00)
42 Viking Squad Oct 4, 2016 $14.9971% (88%)0 .. 20,0000%00:00 (00:00)
43 Weird Hero Nov 18, 2016 $3.9971% (88%)0 .. 20,0000%00:00 (00:00)
44 Graviteam Tactics: Mius-Front Mar 4, 2016 $34.9968% (87%)0 .. 20,0000%00:00 (00:00)
45 Avoid - Sensory Overload Apr 8, 2014 $4.9968% (87%)20,000 .. 50,0000%00:00 (00:00)
46 Moorhuhn Invasion (Crazy Chicken Invasion) Feb 20, 2015 $3.99N/A (N/A)0 .. 20,0000%00:00 (00:00)
47 Lethal VR Nov 8, 2016 $14.9968% (87%/66%)0 .. 20,0000%00:00 (00:00)
48 Mystik Belle May 22, 2015 $14.9968% (87%)0 .. 20,0000%00:00 (00:00)
49 SPINGUN Nov 11, 2016 $1.9968% (87%)0 .. 20,0000%00:00 (00:00)
50 Rocket Fist May 12, 2016 $4.9965% (86%)0 .. 20,0000%00:00 (00:00)
51 Snow Fortress Dec 16, 2016 $14.99N/A (N/A)0 .. 20,0000%00:00 (00:00)
52 Felt Tip Circus Apr 5, 2016 $7.99N/A (N/A)0 .. 20,0000%00:00 (00:00)
53 Super Rad Raygun Nov 15, 2016 $4.99N/A (N/A/64%)0 .. 20,0000%00:00 (00:00)
54 Zero Punctuation: Hatfall - Hatters Gonna Hat Edition Nov 20, 2015 $4.9965% (86%)0 .. 20,0000%00:00 (00:00)
55 VR Invaders Dec 15, 2016 $17.99N/A (N/A)0 .. 20,0000%00:00 (00:00)
56 ORCS May 20, 2016 $1.9963% (85%)20,000 .. 50,0001.61%331:52 (110:37)
57 2 Ninjas 1 Cup Feb 3, 2017 $0.9963% (85%)0 .. 20,0000%00:00 (00:00)
58 Azure Striker Gunvolt Aug 28, 2015 $14.9963% (85%)20,000 .. 50,0000%00:00 (00:00)
59 Disney's Chicken Little Feb 24, 2015 $9.9963% (85%)0 .. 20,0000%00:00 (00:00)
60 Gurgamoth Feb 16, 2016 $4.9963% (85%)20,000 .. 50,0000.57%03:15 (01:05)
61 Eador. Imperium Jan 27, 2017 $19.9960% (84%)0 .. 20,0006.67%00:12 (00:04)
62 Tethered Feb 27, 2017 $24.9957% (83%)0 .. 20,0000%00:00 (00:00)
63 Vertigo Dec 22, 2016 $14.9957% (83%)0 .. 20,0000%00:00 (00:00)
64 Enemy Mar 17, 2015 $14.9957% (83%)0 .. 20,0005.56%00:28 (00:09)
65 Skyhook May 17, 2016 $9.9955% (82%)0 .. 20,0000%00:00 (00:00)
66 Dragon's Lair 2: Time Warp Oct 24, 2013 $9.99N/A (N/A)0 .. 20,0000%00:00 (00:00)
67 SHOCK TROOPERS May 18, 2016 $7.9953% (81%)20,000 .. 50,0000%00:00 (00:00)
68 VERSUS SQUAD Oct 26, 2016 $7.9953% (81%)50,000 .. 100,0003.85%00:39 (00:29)
69 Gunman Taco Truck Jan 28, 2017 $2.9953% (81%)0 .. 20,0000%00:00 (00:00)
70 LocoCycle Feb 14, 2014 $9.9950% (80%)0 .. 20,0000%00:00 (00:00)
71 Umihara Kawase Shun: Steam Edition Nov 24, 2015 $11.99N/A (N/A)0 .. 20,0000%00:00 (00:00)
72 Radiant Defense Jul 11, 2014 $4.9950% (80%)0 .. 20,0000%00:00 (00:00)
73 Seven Kingdoms 2 HD Feb 4, 2015 $9.9950% (80%)20,000 .. 50,0000%00:00 (00:00)
74 ARCADE GAME SERIES: Ms. PAC-MAN Apr 19, 2016 $3.9950% (80%)0 .. 20,0000%00:00 (00:00)
75 TWINKLE STAR SPRITES May 26, 2016 $7.9950% (80%)20,000 .. 50,0000%00:00 (00:00)
76 Paganitzu May 5, 2014 $4.99N/A (N/A)20,000 .. 50,0000%00:00 (00:00)
77 Earthworm Jim 2 Nov 4, 2009 $9.9948% (79%)20,000 .. 50,0000%00:00 (00:00)
78 Klang Sep 22, 2016 $14.9948% (79%/71%)0 .. 20,0000%00:00 (00:00)
79 Age of Barbarian Extended Cut May 20, 2016 $12.9948% (79%)0 .. 20,0000%00:00 (00:00)
80 Caladrius Blaze Jan 12, 2017 $24.9948% (79%)0 .. 20,0000%00:00 (00:00)
81 Daedalus - No Escape Oct 28, 2014 $4.9948% (79%)20,000 .. 50,0000%00:00 (00:00)
82 Starscape Nov 3, 2008 $7.9948% (79%)0 .. 20,0000%00:00 (00:00)
83 Gnomes Vs. Fairies: Greckel's Quest Jul 1, 2016 $9.9948% (79%)0 .. 20,0000%00:00 (00:00)
84 TASTEE: Lethal Tactics May 10, 2016 $14.9948% (79%)20,000 .. 50,0001.2%00:30 (00:10)
85 Quick Draw Jan 10, 2017 $9.99N/A (N/A)0 .. 20,0000%00:00 (00:00)
86 Xenocide Aug 28, 2015 $2.99N/A (N/A)0 .. 20,0000%00:00 (00:00)
87 Mysterium: A Psychic Clue Game Jan 12, 2017 $6.9946% (78%)50,000 .. 100,0000.38%02:17 (00:45)
88 IrreVRsible May 24, 2016 $1.99N/A (N/A)0 .. 20,0000%00:00 (00:00)
89 Cluck Yegger in Escape From The Planet of The Poultroid Nov 9, 2015 $2.99N/A (N/A)0 .. 20,0000%00:00 (00:00)
90 Starchaser: Priestess of the Night Sky Jul 24, 2015 $9.99N/A (N/A)0 .. 20,0000%00:00 (00:00)
91 THE LAST BLADE Aug 31, 2016 $9.9944% (77%)20,000 .. 50,0000%00:00 (00:00)
92 Auralux: Constellations Jun 1, 2016 $9.9944% (77%)0 .. 20,0000%00:00 (00:00)
93 Disney Infinity 3.0: Gold Edition Dec 9, 2016 $29.9944% (77%)0 .. 20,0003.33%00:49 (00:16)
94 Curse of the Crescent Isle DX Aug 21, 2015 $0.9944% (77%)0 .. 20,0000%00:00 (00:00)
95 Tank Battle: 1944 Mar 1, 2016 $9.99N/A (N/A)0 .. 20,0000%00:00 (00:00)
96 Cue Club 2: Pool & Snooker Mar 7, 2016 $18.9942% (76%)0 .. 20,0000%00:00 (00:00)
97 NOBUNAGA’S AMBITION: Kakushin with Power Up Kit / 信長の野望・革新 with パワーアップキット Jun 25, 2015 $54.9940% (75%)20,000 .. 50,0000%00:00 (00:00)
98 Onechanbara Z2: Chaos Jun 2, 2016 $39.9940% (75%)0 .. 20,0000%00:00 (00:00)
99 Mekazoo Nov 14, 2016 $9.9940% (75%/80%)0 .. 20,0000%00:00 (00:00)
100 Death by Game Show Jan 22, 2016 $9.9940% (75%)20,000 .. 50,0000%00:00 (00:00)
101 Sentry Knight Tactics Oct 3, 2016 $4.9939% (74%)0 .. 20,0000%00:00 (00:00)
102 Fortify Apr 8, 2016 $4.9939% (74%)0 .. 20,0000%00:00 (00:00)
103 Smell Of Death Jul 4, 2016 $9.9939% (74%)0 .. 20,0000%00:00 (00:00)
104 Bionic Commando Jul 28, 2009 $9.9939% (74%/69%)200,000 .. 500,0000%00:00 (00:00)
105 Loot or Die Sep 16, 2016 $0.99N/A (N/A)0 .. 20,0000%00:00 (00:00)
106 Crewsaders Nov 17, 2016 $2.99N/A (N/A)0 .. 20,0000%00:00 (00:00)
107 Crow Oct 6, 2014 $9.99N/A (N/A)20,000 .. 50,0000%00:00 (00:00)
108 EPOCH Jun 5, 2014 $1.99N/A (N/A)0 .. 20,0000%00:00 (00:00)
109 Madness Cubed May 12, 2016 $1.9935% (72%)50,000 .. 100,0001.94%01:29 (00:56)
110 Castle Torgeath: Descent into Darkness Jan 22, 2016 $7.9935% (72%)0 .. 20,0004.17%02:06 (00:42)
111 Auro: A Monster-Bumping Adventure Apr 13, 2016 $6.9935% (72%)0 .. 20,0000%00:00 (00:00)
112 Aces of the Luftwaffe May 8, 2015 $4.99N/A (N/A)0 .. 20,0000%00:00 (00:00)
113 Phoning Home Feb 7, 2017 $19.9934% (71%/61%)20,000 .. 50,0001.08%03:07 (01:02)
114 FIVE: Champions of Canaan Sep 27, 2016 $3.9934% (71%)0 .. 20,0005.56%02:03 (01:21)
115 Zoo Empire Aug 1, 2004 $6.99N/A (N/A/59%)0 .. 20,0000%00:00 (00:00)
116 Heroes of Normandie Oct 1, 2015 $29.9932% (70%/65%)0 .. 20,0000%00:00 (00:00)
117 Battle Fantasia -Revised Edition- Jul 7, 2015 $14.9932% (70%)0 .. 20,0007.69%00:15 (00:10)
118 Graveyard Shift Oct 20, 2016 $1.99N/A (N/A)0 .. 20,0000%00:00 (00:00)
119 The Next World Mar 7, 2016 $12.9930% (69%)20,000 .. 50,0000%00:00 (00:00)
120 AirMech Command Mar 8, 2017 $19.9930% (69%)0 .. 20,0000%00:00 (00:00)
121 Back in 1995 Apr 28, 2016 $9.9930% (69%/52%)0 .. 20,0000%00:00 (00:00)
122 Death Dojo Nov 8, 2016 Free30% (69%)0 .. 20,0000%00:00 (00:00)
123 Little King's Story Aug 5, 2016 $19.9930% (69%/62%)0 .. 20,0000%00:00 (00:00)
124 Global Outbreak: Doomsday Edition Aug 11, 2014 $8.9929% (68%)0 .. 20,0003.03%05:46 (03:50)
125 Brigade E5: New Jagged Union Apr 30, 2014 $3.9929% (68%/41%)0 .. 20,0000%00:00 (00:00)
126 V ARRR Jun 10, 2016 $9.9929% (68%)0 .. 20,0000%00:00 (00:00)
127 Warhammer 40,000: Armageddon - Da Orks Aug 18, 2016 $19.99N/A (N/A)0 .. 20,0000%00:00 (00:00)
128 Space Food Truck Mar 25, 2016 $9.9929% (68%)20,000 .. 50,0000%00:00 (00:00)
129 Pure Chess Grandmaster Edition Sep 9, 2016 $15.9929% (68%)0 .. 20,00033.33%00:18 (00:09)
130 Harold Feb 12, 2015 $9.99N/A (N/A/70%)0 .. 20,0000%00:00 (00:00)
131 Ravenmark: Scourge of Estellion Sep 10, 2015 $14.9926% (66%/75%)0 .. 20,0000%00:00 (00:00)
132 1775: Rebellion Sep 29, 2016 $24.99N/A (N/A)0 .. 20,0000%00:00 (00:00)
133 Locked Fears Nov 4, 2016 $0.99N/A (N/A)0 .. 20,0000%00:00 (00:00)
134 Disney Alice in Wonderland Oct 6, 2014 $19.9926% (66%/63%)0 .. 20,0000%00:00 (00:00)
135 Fair Strike Apr 23, 2015 $3.99N/A (N/A/56%)0 .. 20,0000%00:00 (00:00)
136 Zombie City Defense 2 Aug 19, 2016 $9.9926% (66%)0 .. 20,0000%00:00 (00:00)
137 Tank Brawl Apr 20, 2016 $4.99N/A (N/A)0 .. 20,0000%00:00 (00:00)
138 Scary Girl Apr 9, 2012 $6.99N/A (N/A)0 .. 20,0000%00:00 (00:00)
139 John Wick Chronicles Feb 9, 2017 $19.9924% (65%/57%)0 .. 20,0000%00:00 (00:00)
140 King Lucas Dec 1, 2016 $4.9923% (64%)20,000 .. 50,0000.63%00:34 (00:11)
141 Link Apr 22, 2016 $4.99N/A (N/A)0 .. 20,0000%00:00 (00:00)
142 El Matador Apr 3, 2014 $3.9923% (64%/54%)20,000 .. 50,0000%00:00 (00:00)
143 Disney Pirates of the Caribbean: At Worlds End Oct 6, 2014 $19.9922% (63%)20,000 .. 50,0000%00:00 (00:00)
144 Toxic Bunny HD Jul 18, 2014 $5.99N/A (N/A)0 .. 20,0000%00:00 (00:00)
145 Resilience: Wave Survival Dec 23, 2015 $5.9922% (63%)0 .. 20,0000%00:00 (00:00)
146 ROM: Extraction Dec 7, 2016 $19.9922% (63%)0 .. 20,0000%00:00 (00:00)
147 #KILLALLZOMBIES Aug 10, 2016 $4.9921% (62%)20,000 .. 50,0000.77%07:33 (02:31)
148 Hyperspace Pinball Sep 30, 2015 $2.99N/A (N/A)0 .. 20,0000%00:00 (00:00)
149 Element TD Jan 20, 2017 $0.99N/A (N/A)0 .. 20,0000%00:00 (00:00)
150 Spirit of War Mar 12, 2015 $9.99N/A (N/A)20,000 .. 50,0000%00:00 (00:00)
151 SunAge: Battle for Elysium Dec 15, 2014 $14.9920% (61%)0 .. 20,0000%00:00 (00:00)
152 Civil War: 1863 Jun 21, 2016 $9.99N/A (N/A)0 .. 20,0002.78%03:17 (01:05)
153 MacGuffin Feb 18, 2016 $2.99N/A (N/A)0 .. 20,0000%00:00 (00:00)
154 Lolly Joe Aug 5, 2016 $2.99N/A (N/A)0 .. 20,0000%00:00 (00:00)
155 Cuban Missile Crisis: Ice Crusade Mar 25, 2015 $4.99N/A (N/A)20,000 .. 50,0000%00:00 (00:00)
156 Defend Your Crypt Jul 21, 2016 $2.99N/A (N/A)0 .. 20,0000%00:00 (00:00)
157 Rabbit Island Jul 13, 2016 $1.99N/A (N/A)0 .. 20,0000%00:00 (00:00)
158 Disney Tangled Oct 6, 2014 $19.99N/A (N/A)0 .. 20,0000%00:00 (00:00)
159 Yar's Revenge Apr 28, 2011 $9.99N/A (N/A/56%)0 .. 20,0000%00:00 (00:00)
160 Mosaico Nov 26, 2013 $19.99N/A (N/A)0 .. 20,0000%00:00 (00:00)
161 Big Buck Hunter Arcade Oct 25, 2016 $9.99N/A (N/A)0 .. 20,0000%00:00 (00:00)
162 Police Tactics: Imperio Sep 7, 2016 $19.9918% (59%)0 .. 20,0000%00:00 (00:00)
163 Crystal Rift Mar 30, 2016 $9.9917% (58%)0 .. 20,0000%00:00 (00:00)
164 Sir! I'd Like To Report A Bug! Oct 19, 2015 $1.99N/A (N/A)0 .. 20,0000%00:00 (00:00)
165 Prophour23 Oct 22, 2014 $9.99N/A (N/A)20,000 .. 50,0000%00:00 (00:00)
166 Life in Bunker Feb 25, 2016 $15.9916% (57%)0 .. 20,0000%00:00 (00:00)
167 Dungeon Manager ZV Oct 16, 2015 $9.9916% (57%)0 .. 20,0000%00:00 (00:00)
168 Desert Law Mar 25, 2015 $2.99N/A (N/A)20,000 .. 50,0000%00:00 (00:00)
169 Rocko's Quest Apr 24, 2014 $4.99N/A (N/A/41%)0 .. 20,0000%00:00 (00:00)
170 Frontline : Road to Moscow Aug 8, 2014 $9.99N/A (N/A)0 .. 20,0000%00:00 (00:00)
171 Steam Squad Jul 28, 2016 $17.9914% (55%)0 .. 20,0000%00:00 (00:00)
172 VR Journey Dec 15, 2016 $2.99N/A (N/A)20,000 .. 50,0000%00:00 (00:00)
173 Time of Fury Jul 18, 2014 $19.99N/A (N/A)0 .. 20,0000%00:00 (00:00)
174 reconquest Dec 16, 2016 $11.9914% (55%)0 .. 20,0000%00:00 (00:00)
175 Princess Kaguya: Legend of the Moon Warrior Aug 4, 2015 $10.99N/A (N/A)0 .. 20,0000%00:00 (00:00)
176 MDK2 HD Jul 30, 2012 $14.9913% (53%/73%)0 .. 20,0000%00:00 (00:00)
177 Crusaders: Thy Kingdom Come Oct 8, 2009 $9.99N/A (N/A)0 .. 20,0000%00:00 (00:00)
178 Police Quest: SWAT Sep 30, 1995 $5.99N/A (N/A)0 .. 20,0000%00:00 (00:00)
179 World War II GI Mar 15, 1999 $6.99N/A (N/A)0 .. 20,0000%00:00 (00:00)
180 And So It Was Feb 29, 2016 $9.99N/A (N/A)0 .. 20,0000%00:00 (00:00)
181 Planar Conquest May 30, 2016 $19.9911% (50%/53%)20,000 .. 50,0000%00:00 (00:00)
182 B.A.D Battle Armor Division Aug 18, 2015 $5.99N/A (N/A)0 .. 20,0000%00:00 (00:00)
183 Megamagic: Wizards of the Neon Age Apr 20, 2016 $9.9911% (50%/67%)20,000 .. 50,0000%00:00 (00:00)
184 Scapeland Mar 31, 2016 $3.9911% (50%)0 .. 20,0000%00:00 (00:00)
185 HitBox Jan 30, 2017 Free9% (47%)0 .. 20,0000%00:00 (00:00)
186 Disposable Heroes Oct 1, 2015 $4.999% (47%)20,000 .. 50,0000%00:00 (00:00)
187 World War 2: Time of Wrath Jun 6, 2014 $4.99N/A (N/A)20,000 .. 50,0000%00:00 (00:00)
188 Plancon: Space Conflict Aug 8, 2016 $6.998% (45%)20,000 .. 50,0000%00:00 (00:00)
189 Lost Sea Jul 5, 2016 $14.997% (44%)0 .. 20,0000%00:00 (00:00)
190 Clockwork Empires Oct 26, 2016 $29.997% (44%/58%)20,000 .. 50,0005.88%02:12 (00:44)
191 Infinium Strike Jul 14, 2016 $9.997% (43%)0 .. 20,0000%00:00 (00:00)
192 The Fleets of Sol Apr 1, 2016 $8.99N/A (N/A)0 .. 20,0000%00:00 (00:00)
193 RYAN BLACK Jan 14, 2017 $2.99N/A (N/A)20,000 .. 50,0000%00:00 (00:00)
194 Mars 2030 Mar 11, 2016 $4.99N/A (N/A)0 .. 20,0000%00:00 (00:00)
195 Damage Inc. Pacific Squadron WWII Aug 28, 2012 $39.99N/A (N/A)0 .. 20,0000%00:00 (00:00)
196 Cavern Escape Feb 20, 2017 $3.996% (41%)100,000 .. 200,0000.24%02:27 (01:16)
197 Villagers Mar 25, 2016 $19.996% (40%)0 .. 20,00010%01:30 (00:45)
198 Red Goddess: Inner World Sep 1, 2015 $9.995% (39%/53%)0 .. 20,0000%00:00 (00:00)
199 Cubesis Aug 22, 2014 $4.99N/A (N/A)0 .. 20,0000%00:00 (00:00)
200 Zombie Apocalypse: Escape The Undead City Nov 25, 2013 $0.995% (38%)0 .. 20,0000%00:00 (00:00)
201 Wave of Darkness Nov 5, 2015 $29.995% (38%)0 .. 20,0000%00:00 (00:00)
202 We Are Legion Aug 7, 2015 $9.995% (37%)20,000 .. 50,0000%00:00 (00:00)
203 Sim Junta Aug 18, 2015 $1.994% (35%)0 .. 20,0000%00:00 (00:00)
204 CDF Ghostship Jun 26, 2015 $9.994% (33%)0 .. 20,0000%00:00 (00:00)
205 US and THEM Mar 18, 2014 $2.993% (32%)20,000 .. 50,0000%00:00 (00:00)
206 Grizzly Valley Apr 23, 2016 $4.993% (32%)0 .. 20,0004%01:51 (00:37)
207 Zombies on a Plane Mar 25, 2016 $4.993% (31%)20,000 .. 50,0000%00:00 (00:00)
208 Feudalism Jun 14, 2016 $14.99N/A (N/A)0 .. 20,0000%00:00 (00:00)
209 Xenophage: Alien Bloodsport May 5, 2014 N/AN/A (N/A)20,000 .. 50,0000%00:00 (00:00)
210 NightZ Feb 14, 2017 $0.992% (26%)20,000 .. 50,0000%00:00 (00:00)
211 Alone in the Dark: Illumination Jun 11, 2015 $19.992% (24%)0 .. 20,0000%00:00 (00:00)
212 APOX Jan 20, 2011 $14.992% (23%/48%)20,000 .. 50,0000%00:00 (00:00)
213 Monster Challenge Circus May 15, 2014 $4.99N/A (N/A)0 .. 20,0000%00:00 (00:00)
214 Uprising44: The Silent Shadows Apr 18, 2014 $1.99N/A (N/A)0 .. 20,0000%00:00 (00:00)
215 Kabitis Jun 2, 2016 $1.991% (18%)100,000 .. 200,0000.13%01:22 (00:27)
216 Barbarian Brawl Feb 12, 2015 $4.99N/A (N/A)0 .. 20,0000%00:00 (00:00)
217 Russian Front Jul 23, 2015 $14.99N/A (N/A)0 .. 20,0000%00:00 (00:00)
218 Iron Soul Feb 26, 2014 $4.99N/A (N/A)0 .. 20,0000%00:00 (00:00)
219 Jurassic Island: The Dinosaur Zoo Jun 11, 2015 $3.991% (3%)0 .. 20,0000%00:00 (00:00)
220 Cavernus Jul 5, 2016 $1.99N/A (N/A)0 .. 20,0000%00:00 (00:00)
221 Acorn Assault: Rodent Revolution Mar 2, 2016 $9.99N/A (N/A)0 .. 20,0002.78%02:37 (00:52)
222 Leap Up no jutsu Dec 22, 2016 $0.99N/A (N/A)20,000 .. 50,0000%00:00 (00:00)
223 Civil War: 1862 Oct 6, 2016 $9.99N/A (N/A)0 .. 20,0000%00:00 (00:00)
224 Retrobooster Jul 11, 2014 $14.99N/A (N/A)0 .. 20,0000%00:00 (00:00)
225 Steamalot: Epoch's Journey Aug 31, 2015 $4.99N/A (N/A)0 .. 20,0000%00:00 (00:00)
226 Magical Brickout Oct 17, 2016 $7.99N/A (N/A)0 .. 20,0000%00:00 (00:00)
227 Leviathan Starblade Nov 1, 2016 $2.99N/A (N/A)0 .. 20,0000%00:00 (00:00)
228 Die for the Empire Oct 7, 2016 $4.99N/A (N/A)0 .. 20,0000%00:00 (00:00)
229 Disney's Chicken Little: Ace in Action Feb 24, 2015 $19.99N/A (N/A)0 .. 20,0000%00:00 (00:00)
230 Navpoint Sep 23, 2015 $4.99N/A (N/A)0 .. 20,0002.13%00:46 (00:15)
231 Pills4Skills Jan 25, 2016 $2.99N/A (N/A)0 .. 20,0000%00:00 (00:00)
232 The Sun at Night Aug 1, 2014 $4.99N/A (N/A/59%)0 .. 20,0000%00:00 (00:00)
233 ZombieZoid Zenith Sep 30, 2015 $5.99N/A (N/A)0 .. 20,0000%00:00 (00:00)
234 ARK BOX Unlimited Nov 29, 2016 $4.99N/A (N/A)0 .. 20,0000%00:00 (00:00)
235 Twixel Nov 18, 2016 $1.99N/A (N/A)0 .. 20,0000%00:00 (00:00)
236 Lew Pulsipher's Doomstar Sep 16, 2016 $9.99N/A (N/A)0 .. 20,0000%00:00 (00:00)
237 The Body Changer Oct 15, 2015 $9.99N/A (N/A)0 .. 20,0000%00:00 (00:00)
238 Fray: Reloaded Edition Jun 19, 2012 N/AN/A (N/A/27%)0 .. 20,0000%00:00 (00:00)
239 DEFCON VR Feb 15, 2017 FreeN/A (N/A/84%)0 .. 20,0000%00:00 (00:00)
240 WinKings Oct 28, 2016 $4.99N/A (N/A)0 .. 20,0000%00:00 (00:00)
241 Final Core Jan 11, 2017 $4.99N/A (N/A)0 .. 20,0000%00:00 (00:00)
242 Porradaria Upgrade Oct 2, 2013 $4.99N/A (N/A)20,000 .. 50,0000.54%02:00 (00:40)
243 Driftwatch VR Dec 1, 2016 $2.99N/A (N/A)0 .. 20,0000%00:00 (00:00)
244 LUXIS Oct 26, 2016 $4.99N/A (N/A)0 .. 20,0000%00:00 (00:00)
245 .EXE Jun 16, 2016 $5.99N/A (N/A)0 .. 20,0000%00:00 (00:00)
246 Doomed Kingdoms Dec 12, 2016 $3.99N/A (N/A)100,000 .. 200,0000%00:00 (00:00)
247 Rush for gold: Alaska Jan 14, 2016 $3.99N/A (N/A)50,000 .. 100,0000.3%04:31 (01:30)
248 Monuments of Mars May 5, 2014 N/AN/A (N/A)50,000 .. 100,0000%00:00 (00:00)
249 Board Defenders Sep 6, 2016 $4.99N/A (N/A)0 .. 20,0000%00:00 (00:00)
250 Highland Warriors Jan 20, 2003 $7.99N/A (N/A/58%)0 .. 20,0000%00:00 (00:00)
251 ABO MANDO Dec 31, 2015 $0.99N/A (N/A)20,000 .. 50,0000%00:00 (00:00)
252 Road Works Feb 15, 2014 $7.99N/A (N/A)0 .. 20,0000%00:00 (00:00)
253 Red Game Without A Great Name Dec 9, 2015 $2.99N/A (N/A/55%)20,000 .. 50,0000%00:00 (00:00)

Tags over time:

Access restricted.

This feature is only available to users with special access rights. Sorry.

If you want to proceed, you need to register or log in first and then back Steam Spy on Patreon. Look for Indie or Pro pledge.

Don't forget to use the same email as on Steam Spy!

Owners of this game also own:

Access restricted.

This feature is only available to users with special access rights. Sorry.

If you want to proceed, you need to register or log in first and then back Steam Spy on Patreon. Look for Indie or Pro pledge.

Don't forget to use the same email as on Steam Spy!

Playtime distribution:

Access restricted.

This feature is only available to users with special access rights. Sorry.

If you want to proceed, you need to register or log in first and then back Steam Spy on Patreon. Look for Indie or Pro pledge.

Don't forget to use the same email as on Steam Spy!

Playtime (2 weeks):

Access restricted.

This feature is only available to users with special access rights. Sorry.

If you want to proceed, you need to register or log in first and then back Steam Spy on Patreon. Look for Indie or Pro pledge.

Don't forget to use the same email as on Steam Spy!

User reviews:

Login required.

Please register or log in to see this information.